createdAt,value
2018-10-04T00:00:08.138Z,0
2018-10-04T00:01:09.649Z,0
2018-10-04T00:02:10.999Z,0
2018-10-04T00:03:10.790Z,0
2018-10-04T00:04:11.861Z,0
2018-10-04T00:05:12.372Z,0
2018-10-04T00:06:13.441Z,0
2018-10-04T00:07:14.524Z,0
2018-10-04T00:08:15.042Z,0
2018-10-04T00:09:17.109Z,0
2018-10-04T00:10:17.906Z,0
2018-10-04T00:11:17.701Z,0
2018-10-04T00:12:18.208Z,0
2018-10-04T00:13:19.554Z,0
2018-10-04T00:14:20.625Z,0
2018-10-04T00:15:21.419Z,0
2018-10-04T00:16:22.489Z,0
2018-10-04T00:17:22.836Z,0
2018-10-04T00:18:22.625Z,0
2018-10-04T00:19:23.695Z,0
2018-10-04T00:20:24.485Z,0
2018-10-04T00:21:25.552Z,0
2018-10-04T00:22:26.060Z,0
2018-10-04T00:23:27.134Z,0
2018-10-04T00:24:28.478Z,0
2018-10-04T00:25:29.271Z,0
2018-10-04T00:26:30.062Z,0
2018-10-04T00:27:30.576Z,0
2018-10-04T00:28:31.639Z,0
2018-10-04T00:29:31.986Z,0
2018-10-04T00:30:33.780Z,0
2018-10-04T00:31:33.852Z,0
2018-10-04T00:32:34.643Z,0
2018-10-04T00:33:36.260Z,0
2018-10-04T00:34:36.611Z,0
2018-10-04T00:35:37.677Z,0
2018-10-04T00:36:38.467Z,0
2018-10-04T00:37:39.260Z,0
2018-10-04T00:38:40.887Z,0
2018-10-04T00:39:41.121Z,0
2018-10-04T00:40:42.916Z,0
2018-10-04T00:41:43.428Z,0
2018-10-04T00:42:44.494Z,0
2018-10-04T00:43:45.565Z,0
2018-10-04T00:44:46.184Z,0
2018-10-04T00:45:47.629Z,0
2018-10-04T00:46:47.158Z,0
2018-10-04T00:47:47.508Z,0
2018-10-04T00:48:49.574Z,0
2018-10-04T00:49:49.911Z,0
2018-10-04T00:50:51.421Z,0
2018-10-04T00:51:51.929Z,0
2018-10-04T00:52:54.269Z,0
2018-10-04T00:53:54.332Z,0
2018-10-04T00:54:55.392Z,0
2018-10-04T00:55:55.901Z,0
2018-10-04T00:56:56.687Z,0
2018-10-04T00:57:58.483Z,0
2018-10-04T00:58:58.871Z,0
2018-10-04T00:59:59.233Z,0
2018-10-04T01:00:45.292Z,0
2018-10-04T01:01:46.100Z,0
2018-10-04T01:02:47.440Z,0
2018-10-04T01:03:47.789Z,0
2018-10-04T01:04:49.135Z,0
2018-10-04T01:05:49.752Z,0
2018-10-04T01:06:50.103Z,0
2018-10-04T01:07:50.895Z,0
2018-10-04T01:08:51.956Z,0
2018-10-04T01:09:52.740Z,0
2018-10-04T01:10:53.804Z,0
2018-10-04T01:11:54.898Z,0
2018-10-04T01:12:55.683Z,0
2018-10-04T01:13:56.757Z,0
2018-10-04T01:14:57.262Z,0
2018-10-04T01:15:58.881Z,0
2018-10-04T01:16:59.392Z,0
2018-10-04T01:17:59.899Z,0
2018-10-04T01:19:00.961Z,0
2018-10-04T01:20:01.757Z,0
2018-10-04T01:21:02.269Z,0
2018-10-04T01:22:03.813Z,0
2018-10-04T01:23:04.601Z,0
2018-10-04T01:24:05.389Z,0
2018-10-04T01:25:05.897Z,0
2018-10-04T01:26:07.348Z,0
2018-10-04T01:27:07.131Z,0
2018-10-04T01:28:07.640Z,0
2018-10-04T01:29:08.703Z,0
2018-10-04T01:30:10.047Z,0
2018-10-04T01:31:10.388Z,0
2018-10-04T01:32:10.342Z,0
2018-10-04T01:33:11.128Z,0
2018-10-04T01:34:11.639Z,0
2018-10-04T01:35:13.146Z,0
2018-10-04T01:36:13.209Z,0
2018-10-04T01:37:14.273Z,0
2018-10-04T01:38:14.783Z,0
2018-10-04T01:39:16.574Z,0
2018-10-04T01:40:16.913Z,0
2018-10-04T01:41:17.696Z,0
2018-10-04T01:42:19.233Z,0
2018-10-04T01:43:20.574Z,0
2018-10-04T01:44:21.360Z,0
2018-10-04T01:45:22.590Z,0
2018-10-04T01:46:24.096Z,0
2018-10-04T01:47:24.883Z,0
2018-10-04T01:48:25.223Z,0
2018-10-04T01:49:26.593Z,0
2018-10-04T01:50:27.217Z,0
2018-10-04T01:51:27.277Z,0
2018-10-04T01:52:28.068Z,0
2018-10-04T01:53:28.858Z,0
2018-10-04T01:54:29.365Z,0
2018-10-04T01:55:30.709Z,0
2018-10-04T01:56:31.052Z,0
2018-10-04T01:57:30.839Z,0
2018-10-04T01:58:32.624Z,0
2018-10-04T01:59:33.976Z,0
2018-10-04T02:00:35.320Z,0
2018-10-04T02:01:36.386Z,0
2018-10-04T02:02:36.919Z,0
2018-10-04T02:03:38.042Z,0
2018-10-04T02:04:38.830Z,0
2018-10-04T02:05:39.172Z,0
2018-10-04T02:06:39.967Z,0
2018-10-04T02:07:41.576Z,0
2018-10-04T02:08:42.477Z,0
2018-10-04T02:09:42.818Z,0
2018-10-04T02:10:43.601Z,0
2018-10-04T02:11:44.106Z,0
2018-10-04T02:12:45.066Z,0
2018-10-04T02:13:45.850Z,0
2018-10-04T02:14:47.193Z,0
2018-10-04T02:15:47.259Z,0
2018-10-04T02:16:48.322Z,0
2018-10-04T02:17:48.390Z,0
2018-10-04T02:18:50.014Z,0
2018-10-04T02:19:50.353Z,0
2018-10-04T02:20:51.416Z,0
2018-10-04T02:21:52.759Z,0
2018-10-04T02:22:52.441Z,0
2018-10-04T02:23:54.228Z,0
2018-10-04T02:24:55.015Z,0
2018-10-04T02:25:55.521Z,0
2018-10-04T02:26:56.865Z,0
2018-10-04T02:27:57.926Z,0
2018-10-04T02:28:58.712Z,0
2018-10-04T02:30:00.609Z,0
2018-10-04T02:31:00.678Z,0
2018-10-04T02:32:01.034Z,0
2018-10-04T02:33:02.175Z,0
2018-10-04T02:34:02.524Z,0
2018-10-04T02:35:03.869Z,0
2018-10-04T02:36:04.657Z,0
2018-10-04T02:37:05.439Z,0
2018-10-04T02:38:06.226Z,0
2018-10-04T02:39:06.732Z,0
2018-10-04T02:40:07.797Z,0
2018-10-04T02:41:08.581Z,0
2018-10-04T02:42:08.814Z,0
2018-10-04T02:43:09.789Z,0
2018-10-04T02:44:10.138Z,0
2018-10-04T02:45:11.813Z,0
2018-10-04T02:46:12.168Z,0
2018-10-04T02:47:12.551Z,0
2018-10-04T02:48:13.053Z,0
2018-10-04T02:49:13.847Z,0
2018-10-04T02:50:14.742Z,0
2018-10-04T02:51:15.251Z,0
2018-10-04T02:52:16.037Z,0
2018-10-04T02:53:17.542Z,0
2018-10-04T02:54:18.049Z,0
2018-10-04T02:55:19.692Z,0
2018-10-04T02:56:20.033Z,0
2018-10-04T02:57:20.822Z,0
2018-10-04T02:58:22.330Z,0
2018-10-04T02:59:23.392Z,0
2018-10-04T03:00:23.191Z,0
2018-10-04T03:01:24.805Z,0
2018-10-04T03:02:25.428Z,0
2018-10-04T03:03:25.933Z,0
2018-10-04T03:04:27.590Z,0
2018-10-04T03:05:28.208Z,0
2018-10-04T03:06:29.273Z,0
2018-10-04T03:07:29.614Z,0
2018-10-04T03:08:30.412Z,0
2018-10-04T03:09:31.198Z,0
2018-10-04T03:10:32.261Z,0
2018-10-04T03:11:32.051Z,0
2018-10-04T03:12:33.948Z,0
2018-10-04T03:13:34.040Z,0
2018-10-04T03:14:34.823Z,0
2018-10-04T03:15:35.610Z,0
2018-10-04T03:16:36.957Z,0
2018-10-04T03:17:37.739Z,0
2018-10-04T03:18:38.380Z,0
2018-10-04T03:19:38.442Z,0
2018-10-04T03:20:39.230Z,0
2018-10-04T03:21:40.289Z,0
2018-10-04T03:22:41.359Z,0
2018-10-04T03:23:42.168Z,0
2018-10-04T03:24:43.793Z,0
2018-10-04T03:25:43.859Z,0
2018-10-04T03:26:44.651Z,0
2018-10-04T03:27:45.708Z,0
2018-10-04T03:28:46.328Z,0
2018-10-04T03:29:45.838Z,0
2018-10-04T03:30:47.760Z,0
2018-10-04T03:31:48.381Z,0
2018-10-04T03:32:49.308Z,0
2018-10-04T03:33:50.285Z,0
2018-10-04T03:34:50.080Z,0
2018-10-04T03:35:51.439Z,0
2018-10-04T03:36:52.781Z,0
2018-10-04T03:37:53.140Z,0
2018-10-04T03:38:53.925Z,0
2018-10-04T03:39:55.271Z,0
2018-10-04T03:40:55.781Z,0
2018-10-04T03:41:56.839Z,0
2018-10-04T03:42:56.906Z,0
2018-10-04T03:43:57.734Z,0
2018-10-04T03:44:58.812Z,0
2018-10-04T03:45:59.152Z,0
2018-10-04T03:46:59.938Z,0
2018-10-04T03:48:01.720Z,0
2018-10-04T03:49:02.782Z,0
2018-10-04T03:50:03.300Z,0
2018-10-04T03:51:04.917Z,0
2018-10-04T03:52:05.257Z,0
2018-10-04T03:53:06.322Z,0
2018-10-04T03:54:07.054Z,0
2018-10-04T03:55:07.145Z,0
2018-10-04T03:56:06.938Z,0
2018-10-04T03:57:08.004Z,0
2018-10-04T03:58:08.513Z,0
2018-10-04T03:59:09.297Z,0
2018-10-04T04:00:10.925Z,0
2018-10-04T04:01:12.271Z,0
2018-10-04T04:02:12.338Z,0
2018-10-04T04:03:12.851Z,0
2018-10-04T04:04:13.707Z,0
2018-10-04T04:05:14.049Z,0
2018-10-04T04:06:14.559Z,0
2018-10-04T04:07:16.625Z,0
2018-10-04T04:08:16.968Z,0
2018-10-04T04:09:17.754Z,0
2018-10-04T04:10:18.815Z,0
2018-10-04T04:11:19.188Z,0
2018-10-04T04:12:19.975Z,0
2018-10-04T04:13:20.768Z,0
2018-10-04T04:14:21.431Z,0
2018-10-04T04:15:22.533Z,0
2018-10-04T04:16:23.876Z,0
2018-10-04T04:17:24.220Z,0
2018-10-04T04:18:24.839Z,4
2018-10-04T04:19:24.904Z,0
2018-10-04T04:20:25.615Z,0
2018-10-04T04:21:26.675Z,0
2018-10-04T04:22:28.270Z,0
2018-10-04T04:23:28.941Z,0
2018-10-04T04:24:28.899Z,0
2018-10-04T04:25:29.407Z,0
2018-10-04T04:26:29.914Z,0
2018-10-04T04:27:30.708Z,0
2018-10-04T04:28:31.493Z,0
2018-10-04T04:29:32.556Z,0
2018-10-04T04:30:33.927Z,0
2018-10-04T04:31:34.565Z,0
2018-10-04T04:32:34.910Z,0
2018-10-04T04:33:35.974Z,0
2018-10-04T04:34:36.786Z,0
2018-10-04T04:35:37.581Z,0
2018-10-04T04:36:38.651Z,0
2018-10-04T04:37:39.551Z,0
2018-10-04T04:38:39.607Z,0
2018-10-04T04:39:40.689Z,0
2018-10-04T04:40:42.843Z,0
2018-10-04T04:41:43.228Z,0
2018-10-04T04:42:44.568Z,0
2018-10-04T04:43:45.352Z,0
2018-10-04T04:44:46.693Z,0
2018-10-04T04:45:47.480Z,0
2018-10-04T04:46:48.932Z,0
2018-10-04T04:47:49.700Z,0
2018-10-04T04:48:50.219Z,0
2018-10-04T04:49:51.004Z,0
2018-10-04T04:50:52.071Z,0
2018-10-04T04:51:53.006Z,0
2018-10-04T04:52:54.539Z,0
2018-10-04T04:53:54.801Z,4
2018-10-04T04:54:55.035Z,4
2018-10-04T04:55:56.377Z,0
2018-10-04T04:56:56.719Z,0
2018-10-04T04:57:56.784Z,4
2018-10-04T04:58:57.400Z,4
2018-10-04T04:59:57.752Z,0
2018-10-04T05:00:59.097Z,4
2018-10-04T05:01:59.716Z,4
2018-10-04T05:02:59.779Z,8
2018-10-04T05:04:00.012Z,8
2018-10-04T05:05:01.520Z,8
2018-10-04T05:06:03.317Z,12
2018-10-04T05:07:03.422Z,12
2018-10-04T05:08:03.489Z,16
2018-10-04T05:09:05.108Z,20
2018-10-04T05:10:05.449Z,20
2018-10-04T05:11:05.678Z,24
2018-10-04T05:12:06.742Z,28
2018-10-04T05:13:07.541Z,32
2018-10-04T05:14:07.770Z,36
2018-10-04T05:15:08.865Z,40
2018-10-04T05:16:11.788Z,44
2018-10-04T05:17:11.879Z,48
2018-10-04T05:18:12.974Z,52
2018-10-04T05:19:14.037Z,56
2018-10-04T05:20:14.376Z,64
2018-10-04T05:21:15.160Z,68
2018-10-04T05:22:16.892Z,72
2018-10-04T05:23:17.677Z,80
2018-10-04T05:24:18.297Z,84
2018-10-04T05:25:18.528Z,92
2018-10-04T05:26:19.597Z,100
2018-10-04T05:27:20.385Z,108
2018-10-04T05:28:21.175Z,116
2018-10-04T05:29:22.245Z,124
2018-10-04T05:30:22.753Z,136
2018-10-04T05:31:23.542Z,152
2018-10-04T05:32:24.618Z,168
2018-10-04T05:33:26.284Z,184
2018-10-04T05:34:26.347Z,204
2018-10-04T05:35:27.600Z,220
2018-10-04T05:36:27.944Z,240
2018-10-04T05:37:29.715Z,256
2018-10-04T05:38:30.599Z,280
2018-10-04T05:39:30.384Z,304
2018-10-04T05:40:30.904Z,312
2018-10-04T05:41:31.690Z,324
2018-10-04T05:42:32.206Z,344
2018-10-04T05:43:32.996Z,356
2018-10-04T05:44:34.340Z,380
2018-10-04T05:45:35.474Z,408
2018-10-04T05:46:36.816Z,448
2018-10-04T05:47:38.161Z,488
2018-10-04T05:48:39.139Z,536
2018-10-04T05:49:40.069Z,556
2018-10-04T05:50:40.589Z,564
2018-10-04T05:51:42.341Z,584
2018-10-04T05:52:42.483Z,616
2018-10-04T05:53:42.876Z,644
2018-10-04T05:54:44.219Z,660
2018-10-04T05:55:45.334Z,664
2018-10-04T05:56:45.378Z,664
2018-10-04T05:57:47.025Z,672
2018-10-04T05:58:48.238Z,680
2018-10-04T05:59:49.034Z,684
2018-10-04T06:00:49.864Z,696
2018-10-04T06:01:50.655Z,700
2018-10-04T06:02:52.276Z,712
2018-10-04T06:03:53.076Z,716
2018-10-04T06:04:56.794Z,728
2018-10-04T06:05:55.910Z,732
2018-10-04T06:06:57.048Z,740
2018-10-04T06:07:56.640Z,760
2018-10-04T06:08:57.682Z,916
2018-10-04T06:09:57.704Z,1016
2018-10-04T06:10:58.208Z,900
2018-10-04T06:11:59.889Z,824
2018-10-04T06:13:00.963Z,888
2018-10-04T06:14:02.029Z,1140
2018-10-04T06:15:03.939Z,1056
2018-10-04T06:16:03.645Z,1200
2018-10-04T06:17:04.996Z,1424
2018-10-04T06:18:04.513Z,1068
2018-10-04T06:19:05.302Z,976
2018-10-04T06:20:06.395Z,984
2018-10-04T06:21:07.741Z,1080
2018-10-04T06:22:08.480Z,1088
2018-10-04T06:23:08.989Z,1104
2018-10-04T06:24:10.612Z,1124
2018-10-04T06:25:10.680Z,1136
2018-10-04T06:26:11.474Z,1132
2018-10-04T06:27:11.261Z,1120
2018-10-04T06:28:13.190Z,1172
2018-10-04T06:29:13.331Z,1252
2018-10-04T06:30:13.842Z,1164
2018-10-04T06:31:14.360Z,1080
2018-10-04T06:32:15.426Z,1092
2018-10-04T06:33:16.209Z,1084
2018-10-04T06:34:17.551Z,1104
2018-10-04T06:35:18.455Z,1124
2018-10-04T06:36:17.918Z,1132
2018-10-04T06:37:19.200Z,1152
2018-10-04T06:38:20.391Z,1156
2018-10-04T06:39:20.906Z,1160
2018-10-04T06:40:22.695Z,1156
2018-10-04T06:41:23.759Z,1160
2018-10-04T06:42:24.822Z,1236
2018-10-04T06:43:25.893Z,1320
2018-10-04T06:44:26.402Z,1296
2018-10-04T06:45:27.469Z,1460
2018-10-04T06:46:29.406Z,1588
2018-10-04T06:47:29.898Z,1520
2018-10-04T06:48:29.406Z,1836
2018-10-04T06:49:30.768Z,3060
2018-10-04T06:50:30.860Z,7436
2018-10-04T06:51:32.277Z,20320
2018-10-04T06:52:32.992Z,26912
2018-10-04T06:53:33.692Z,8480
2018-10-04T06:54:33.926Z,2992
2018-10-04T06:55:35.410Z,2992
2018-10-04T06:56:35.651Z,2516
2018-10-04T06:57:36.786Z,8188
2018-10-04T06:58:37.312Z,40768
2018-10-04T06:59:38.378Z,49504
2018-10-04T07:00:39.471Z,20320
2018-10-04T07:01:39.983Z,28352
2018-10-04T07:02:41.110Z,60032
2018-10-04T07:03:43.282Z,66464
2018-10-04T07:04:42.672Z,67680
2018-10-04T07:05:43.464Z,64096
2018-10-04T07:06:43.991Z,27584
2018-10-04T07:07:44.780Z,5208
2018-10-04T07:08:46.418Z,5200
2018-10-04T07:09:47.494Z,4416
2018-10-04T07:10:49.024Z,4808
2018-10-04T07:11:49.804Z,4336
2018-10-04T07:12:51.334Z,7084
2018-10-04T07:13:51.406Z,6760
2018-10-04T07:14:52.201Z,5956
2018-10-04T07:15:52.994Z,4576
2018-10-04T07:16:54.073Z,3936
2018-10-04T07:17:54.869Z,3612
2018-10-04T07:18:54.679Z,3596
2018-10-04T07:19:55.915Z,4536
2018-10-04T07:20:57.283Z,6268
2018-10-04T07:21:57.871Z,4960
2018-10-04T07:22:58.392Z,3824
2018-10-04T07:23:59.186Z,4248
2018-10-04T07:24:59.705Z,4076
2018-10-04T07:26:00.772Z,5216
2018-10-04T07:27:02.030Z,7092
2018-10-04T07:28:02.824Z,16384
2018-10-04T07:29:04.198Z,17952
2018-10-04T07:30:04.995Z,17024
2018-10-04T07:31:05.790Z,14916
2018-10-04T07:32:06.303Z,8136
2018-10-04T07:33:07.542Z,7004
2018-10-04T07:34:08.334Z,4324
2018-10-04T07:35:09.251Z,4308
2018-10-04T07:36:09.050Z,6656
2018-10-04T07:37:11.113Z,11800
2018-10-04T07:38:11.988Z,10476
2018-10-04T07:39:12.824Z,11072
2018-10-04T07:40:13.853Z,7052
2018-10-04T07:41:13.658Z,4840
2018-10-04T07:42:15.524Z,4148
2018-10-04T07:43:16.286Z,3840
2018-10-04T07:44:16.636Z,3788
2018-10-04T07:45:17.628Z,3252
2018-10-04T07:46:21.836Z,3224
2018-10-04T07:47:19.174Z,3356
2018-10-04T07:48:20.243Z,3256
2018-10-04T07:49:21.313Z,3380
2018-10-04T07:50:22.826Z,3632
2018-10-04T07:51:22.618Z,3856
2018-10-04T07:52:23.965Z,4040
2018-10-04T07:53:24.314Z,3888
2018-10-04T07:54:24.996Z,3596
2018-10-04T07:55:26.132Z,3100
2018-10-04T07:56:29.021Z,3188
2018-10-04T07:57:28.470Z,3368
2018-10-04T07:58:30.017Z,3208
2018-10-04T07:59:30.503Z,3060
2018-10-04T08:00:31.192Z,3044
2018-10-04T08:01:32.031Z,3028
2018-10-04T08:02:32.418Z,2920
2018-10-04T08:03:32.885Z,2848
2018-10-04T08:04:33.126Z,2804
2018-10-04T08:05:33.916Z,2800
2018-10-04T08:06:36.170Z,2832
2018-10-04T08:07:35.639Z,2792
2018-10-04T08:08:36.430Z,2736
2018-10-04T08:09:37.954Z,2796
2018-10-04T08:10:38.895Z,2824
2018-10-04T08:11:39.710Z,3208
2018-10-04T08:12:41.245Z,3188
2018-10-04T08:13:41.786Z,3060
2018-10-04T08:14:43.304Z,2796
2018-10-04T08:15:44.822Z,2784
2018-10-04T08:16:45.334Z,2800
2018-10-04T08:17:46.303Z,2812
2018-10-04T08:18:47.100Z,2784
2018-10-04T08:19:47.900Z,2876
2018-10-04T08:20:48.694Z,3208
2018-10-04T08:21:50.778Z,3296
2018-10-04T08:22:50.845Z,3376
2018-10-04T08:23:51.915Z,3524
2018-10-04T08:24:52.661Z,3624
2018-10-04T08:25:53.889Z,3664
2018-10-04T08:26:53.660Z,3836
2018-10-04T08:27:54.401Z,3652
2018-10-04T08:28:55.546Z,3452
2018-10-04T08:29:55.763Z,3220
2018-10-04T08:30:57.124Z,3208
2018-10-04T08:31:56.916Z,3316
2018-10-04T08:32:57.984Z,3256
2018-10-04T08:33:59.337Z,2908
2018-10-04T08:35:00.770Z,2736
2018-10-04T08:36:01.190Z,2804
2018-10-04T08:37:01.982Z,3732
2018-10-04T08:38:02.531Z,3364
2018-10-04T08:39:03.323Z,5152
2018-10-04T08:40:03.954Z,13156
2018-10-04T08:41:05.024Z,31424
2018-10-04T08:42:06.118Z,30720
2018-10-04T08:43:06.405Z,40896
2018-10-04T08:44:07.924Z,45344
2018-10-04T08:45:09.000Z,16480
2018-10-04T08:46:10.071Z,6740
2018-10-04T08:47:10.310Z,9588
2018-10-04T08:48:12.403Z,6784
2018-10-04T08:49:11.957Z,2920
2018-10-04T08:50:12.470Z,2720
2018-10-04T08:51:14.315Z,2800
2018-10-04T08:52:14.401Z,2328
2018-10-04T08:53:15.474Z,2636
2018-10-04T08:54:16.520Z,2336
2018-10-04T08:55:17.206Z,2348
2018-10-04T08:56:17.026Z,2372
2018-10-04T08:57:17.544Z,2432
2018-10-04T08:58:18.257Z,2472
2018-10-04T08:59:19.058Z,2528
2018-10-04T09:00:19.571Z,2740
2018-10-04T09:01:20.637Z,2688
2018-10-04T09:02:20.710Z,2512
2018-10-04T09:03:21.783Z,2456
2018-10-04T09:04:23.136Z,2572
2018-10-04T09:05:23.484Z,2920
2018-10-04T09:06:24.831Z,4616
2018-10-04T09:07:26.991Z,4272
2018-10-04T09:08:25.987Z,3544
2018-10-04T09:09:27.781Z,3440
2018-10-04T09:10:28.299Z,3332
2018-10-04T09:11:30.144Z,3516
2018-10-04T09:12:31.497Z,3428
2018-10-04T09:13:32.844Z,3732
2018-10-04T09:14:32.911Z,3228
2018-10-04T09:15:33.702Z,2668
2018-10-04T09:16:34.222Z,3328
2018-10-04T09:17:35.297Z,3216
2018-10-04T09:18:36.396Z,3176
2018-10-04T09:19:37.200Z,3864
2018-10-04T09:20:37.992Z,3692
2018-10-04T09:21:39.064Z,2732
2018-10-04T09:22:39.581Z,2456
2018-10-04T09:23:40.655Z,2972
2018-10-04T09:24:41.449Z,2924
2018-10-04T09:25:41.967Z,2996
2018-10-04T09:26:43.313Z,2364
2018-10-04T09:27:43.106Z,2304
2018-10-04T09:28:44.325Z,2856
2018-10-04T09:29:45.088Z,2900
2018-10-04T09:30:45.601Z,3052
2018-10-04T09:31:46.423Z,3204
2018-10-04T09:32:47.229Z,3268
2018-10-04T09:33:48.460Z,2976
2018-10-04T09:34:49.532Z,2748
2018-10-04T09:35:49.767Z,2636
2018-10-04T09:36:51.869Z,2648
2018-10-04T09:37:52.383Z,9092
2018-10-04T09:38:52.915Z,9720
2018-10-04T09:39:52.987Z,9388
2018-10-04T09:40:53.778Z,15616
2018-10-04T09:41:54.022Z,9356
2018-10-04T09:42:55.412Z,5928
2018-10-04T09:43:55.483Z,8192
2018-10-04T09:44:55.999Z,29856
2018-10-04T09:45:56.790Z,49504
2018-10-04T09:46:57.310Z,50336
2018-10-04T09:47:58.106Z,48896
2018-10-04T09:48:59.086Z,41088
2018-10-04T09:50:00.273Z,46496
2018-10-04T09:51:01.353Z,48672
2018-10-04T09:52:01.601Z,20224
2018-10-04T09:53:02.400Z,23040
2018-10-04T09:54:04.132Z,30816
2018-10-04T09:55:05.718Z,35840
2018-10-04T09:56:05.005Z,49760
2018-10-04T09:57:06.364Z,35904
2018-10-04T09:58:06.883Z,41696
2018-10-04T09:59:07.997Z,48096
2018-10-04T10:00:08.730Z,47456
2018-10-04T10:01:08.935Z,47360
2018-10-04T10:02:10.407Z,46016
2018-10-04T10:03:11.523Z,45632
2018-10-04T10:04:12.492Z,44288
2018-10-04T10:05:13.010Z,43584
2018-10-04T10:06:14.369Z,42400
2018-10-04T10:07:14.952Z,45120
2018-10-04T10:08:16.463Z,30240
2018-10-04T10:09:17.160Z,45600
2018-10-04T10:10:18.523Z,41312
2018-10-04T10:11:23.626Z,45376
2018-10-04T10:12:20.733Z,31552
2018-10-04T10:13:21.534Z,11576
2018-10-04T10:14:22.765Z,39648
2018-10-04T10:15:23.287Z,39296
2018-10-04T10:16:24.098Z,42368
2018-10-04T10:17:25.895Z,41280
2018-10-04T10:18:27.253Z,39584
2018-10-04T10:19:28.337Z,40544
2018-10-04T10:20:29.141Z,39520
2018-10-04T10:21:29.670Z,19072
2018-10-04T10:22:31.033Z,39360
2018-10-04T10:23:31.557Z,39520
2018-10-04T10:24:32.595Z,38880
2018-10-04T10:25:33.151Z,38688
2018-10-04T10:26:33.957Z,38400
2018-10-04T10:27:34.485Z,37280
2018-10-04T10:28:35.293Z,37408
2018-10-04T10:29:36.396Z,37280
2018-10-04T10:30:37.054Z,37280
2018-10-04T10:31:38.001Z,36352
2018-10-04T10:32:38.818Z,35808
2018-10-04T10:33:39.333Z,35840
2018-10-04T10:34:40.470Z,35232
2018-10-04T10:35:41.357Z,34752
2018-10-04T10:36:42.442Z,36224
2018-10-04T10:37:43.255Z,35648
2018-10-04T10:38:44.548Z,35296
2018-10-04T10:39:46.684Z,29536
2018-10-04T10:40:46.577Z,33312
2018-10-04T10:41:47.386Z,31648
2018-10-04T10:42:48.190Z,23552
2018-10-04T10:43:49.275Z,22496
2018-10-04T10:44:50.083Z,19328
2018-10-04T10:45:51.176Z,23360
2018-10-04T10:46:51.252Z,20832
2018-10-04T10:47:52.788Z,13012
2018-10-04T10:48:53.417Z,10200
2018-10-04T10:49:54.271Z,9260
2018-10-04T10:50:55.493Z,6664
2018-10-04T10:51:55.805Z,6612
2018-10-04T10:52:56.607Z,7136
2018-10-04T10:53:57.682Z,8820
2018-10-04T10:54:58.760Z,7664
2018-10-04T10:55:59.562Z,7760
2018-10-04T10:57:00.365Z,7200
2018-10-04T10:58:01.197Z,8196
2018-10-04T10:59:02.863Z,9276
2018-10-04T11:00:04.147Z,12468
2018-10-04T11:01:05.074Z,13984
2018-10-04T11:02:05.045Z,18688
2018-10-04T11:03:06.296Z,20128
2018-10-04T11:04:07.817Z,15968
2018-10-04T11:05:08.620Z,9736
2018-10-04T11:06:09.986Z,8764
2018-10-04T11:07:11.069Z,12736
2018-10-04T11:08:13.101Z,10192
2018-10-04T11:10:52.384Z,13060
2018-10-04T11:11:53.742Z,12940
2018-10-04T11:12:54.093Z,9660
2018-10-04T11:13:54.616Z,7548
2018-10-04T11:14:55.968Z,6232
2018-10-04T11:15:56.329Z,7488
2018-10-04T11:16:57.876Z,8868
2018-10-04T11:17:58.891Z,11992
2018-10-04T11:18:58.330Z,12692
2018-10-04T11:19:59.449Z,14752
2018-10-04T11:21:00.274Z,9028
2018-10-04T11:22:01.077Z,7516
2018-10-04T11:23:02.173Z,5868
2018-10-04T11:24:03.256Z,6292
2018-10-04T11:25:03.778Z,5152
2018-10-04T11:26:05.969Z,3944
2018-10-04T11:27:05.484Z,3828
2018-10-04T11:28:06.843Z,3724
2018-10-04T11:29:07.699Z,3688
2018-10-04T11:30:07.433Z,4124
2018-10-04T11:31:08.431Z,4432
2018-10-04T11:32:09.231Z,4436
2018-10-04T11:33:12.148Z,3824
2018-10-04T11:34:10.752Z,3368
2018-10-04T11:35:11.270Z,3384
2018-10-04T11:36:12.345Z,3412
2018-10-04T11:37:13.415Z,3368
2018-10-04T11:38:14.445Z,3584
2018-10-04T11:39:15.194Z,3708
2018-10-04T11:40:15.749Z,3228
2018-10-04T11:41:17.278Z,3780
2018-10-04T11:42:17.348Z,3476
2018-10-04T11:43:17.865Z,3508
2018-10-04T11:44:19.491Z,3484
2018-10-04T11:45:19.849Z,3300
2018-10-04T11:46:20.927Z,3328
2018-10-04T11:47:21.991Z,2804
2018-10-04T11:48:23.254Z,3636
2018-10-04T11:49:23.329Z,3732
2018-10-04T11:50:23.853Z,4056
2018-10-04T11:51:24.383Z,3616
2018-10-04T11:52:25.179Z,3552
2018-10-04T11:53:26.694Z,4560
2018-10-04T11:54:27.982Z,5732
2018-10-04T11:55:28.946Z,5868
2018-10-04T11:56:29.018Z,5688
2018-10-04T11:57:29.540Z,4252
2018-10-04T11:58:30.069Z,4604
2018-10-04T11:59:30.587Z,4788
2018-10-04T12:00:32.103Z,5092
2018-10-04T12:01:33.311Z,5040
2018-10-04T12:02:34.020Z,5404
2018-10-04T12:03:35.515Z,5556
2018-10-04T12:04:36.307Z,5160
2018-10-04T12:05:37.381Z,5412
2018-10-04T12:06:39.262Z,5504
2018-10-04T12:07:38.789Z,5256
2018-10-04T12:08:40.856Z,5144
2018-10-04T12:09:40.509Z,4688
2018-10-04T12:10:42.584Z,4400
2018-10-04T12:11:43.125Z,3772
2018-10-04T12:12:44.685Z,3908
2018-10-04T12:13:45.438Z,5516
2018-10-04T12:14:45.956Z,4996
2018-10-04T12:15:48.594Z,4988
2018-10-04T12:16:48.911Z,5288
2018-10-04T12:17:49.712Z,5924
2018-10-04T12:18:52.046Z,6168
2018-10-04T12:19:51.548Z,6316
2018-10-04T12:20:52.624Z,6372
2018-10-04T12:21:53.785Z,6424
2018-10-04T12:22:54.910Z,6456
2018-10-04T12:23:55.806Z,6152
2018-10-04T12:24:57.340Z,5904
2018-10-04T12:25:57.234Z,5700
2018-10-04T12:26:57.309Z,5872
2018-10-04T12:27:58.983Z,4484
2018-10-04T12:28:59.220Z,6588
2018-10-04T12:30:00.954Z,6816
2018-10-04T12:31:02.327Z,6844
2018-10-04T12:32:02.272Z,7176
2018-10-04T12:33:03.396Z,6120
2018-10-04T12:34:04.197Z,5080
2018-10-04T12:35:06.169Z,6796
2018-10-04T12:36:07.038Z,6936
2018-10-04T12:37:07.513Z,6912
2018-10-04T12:38:08.594Z,6920
2018-10-04T12:39:10.044Z,6168
2018-10-04T12:40:10.285Z,6468
2018-10-04T12:41:11.914Z,6420
2018-10-04T12:42:13.184Z,6208
2018-10-04T12:43:14.980Z,4116
2018-10-04T12:44:16.362Z,5900
2018-10-04T12:45:17.385Z,2364
2018-10-04T12:46:17.922Z,2080
2018-10-04T12:47:20.981Z,3020
2018-10-04T12:48:19.706Z,1940
2018-10-04T12:49:22.237Z,1832
2018-10-04T12:50:22.168Z,7016
2018-10-04T12:51:23.965Z,7032
2018-10-04T12:52:25.040Z,7140
2018-10-04T12:53:25.869Z,7004
2018-10-04T12:54:27.868Z,6828
2018-10-04T12:55:27.947Z,6816
2018-10-04T12:56:28.187Z,6436
2018-10-04T12:57:29.707Z,5328
2018-10-04T12:58:30.519Z,2812
2018-10-04T12:59:31.590Z,7348
2018-10-04T13:00:33.023Z,3032
2018-10-04T13:01:33.375Z,6900
2018-10-04T13:02:34.418Z,6692
2018-10-04T13:03:34.786Z,6756
2018-10-04T13:04:35.577Z,6616
2018-10-04T13:05:36.410Z,6524
2018-10-04T13:06:37.724Z,6692
2018-10-04T13:07:37.960Z,3236
2018-10-04T13:08:39.477Z,6840
2018-10-04T13:09:39.148Z,6756
2018-10-04T13:10:39.942Z,4968
2018-10-04T13:11:41.296Z,6616
2018-10-04T13:12:41.106Z,6692
2018-10-04T13:13:44.695Z,6728
2018-10-04T13:14:42.919Z,6644
2018-10-04T13:15:44.160Z,6588
2018-10-04T13:16:45.516Z,6592
2018-10-04T13:17:46.048Z,6532
2018-10-04T13:18:47.178Z,6580
2018-10-04T13:19:46.966Z,6592
2018-10-04T13:20:50.502Z,6552
2018-10-04T13:21:48.708Z,6300
2018-10-04T13:22:49.276Z,6168
2018-10-04T13:23:50.076Z,6192
2018-10-04T13:24:51.079Z,6400
2018-10-04T13:25:52.322Z,6420
2018-10-04T13:26:52.842Z,6428
2018-10-04T13:27:56.498Z,6344
2018-10-04T13:28:55.794Z,6276
2018-10-04T13:29:56.313Z,6204
2018-10-04T13:30:57.447Z,6116
2018-10-04T13:31:58.241Z,6156
2018-10-04T13:32:58.785Z,6180
2018-10-04T13:33:59.364Z,6040
2018-10-04T13:35:00.604Z,5756
2018-10-04T13:36:01.121Z,5676
2018-10-04T13:37:03.167Z,5808
2018-10-04T13:38:02.969Z,6060
2018-10-04T13:39:04.884Z,6168
2018-10-04T13:40:05.137Z,6168
2018-10-04T13:41:06.983Z,6444
2018-10-04T13:42:07.522Z,6748
2018-10-04T13:43:09.261Z,6840
2018-10-04T13:44:09.635Z,6912
2018-10-04T13:45:11.900Z,6972
2018-10-04T13:46:13.424Z,6976
2018-10-04T13:47:13.120Z,6956
2018-10-04T13:48:14.212Z,7052
2018-10-04T13:49:14.734Z,7220
2018-10-04T13:50:15.534Z,7272
2018-10-04T13:51:18.741Z,7360
2018-10-04T13:52:17.865Z,7392
2018-10-04T13:53:20.176Z,7424
2018-10-04T13:54:20.401Z,7464
2018-10-04T13:55:21.524Z,7492
2018-10-04T13:56:21.771Z,7548
2018-10-04T13:57:23.808Z,7544
2018-10-04T13:58:23.881Z,7528
2018-10-04T13:59:25.539Z,7532
2018-10-04T14:00:27.615Z,7488
2018-10-04T14:01:28.200Z,7456